createdAt,value
2018-08-01T00:00:53.652Z,17.37
2018-08-01T00:03:22.425Z,14.30
2018-08-01T00:05:51.059Z,15.77
2018-08-01T00:08:19.966Z,17.87
2018-08-01T00:10:48.728Z,17.37
2018-08-01T00:13:17.557Z,15.80
2018-08-01T00:15:46.437Z,17.57
2018-08-01T00:18:15.284Z,18.37
2018-08-01T00:20:44.188Z,17.30
2018-08-01T00:23:13.592Z,17.17
2018-08-01T00:25:42.335Z,17.37
2018-08-01T00:28:11.176Z,17.57
2018-08-01T00:30:39.973Z,17.43
2018-08-01T00:33:09.596Z,17.70
2018-08-01T00:35:38.488Z,23.87
2018-08-01T00:38:07.387Z,20.13
2018-08-01T00:40:36.177Z,17.97
2018-08-01T00:43:05.009Z,20.07
2018-08-01T00:45:33.833Z,18.77
2018-08-01T00:48:02.783Z,19.00
2018-08-01T00:50:31.508Z,20.90
2018-08-01T00:53:00.316Z,18.97
2018-08-01T00:55:29.080Z,17.03
2018-08-01T00:57:58.127Z,18.40
2018-08-01T01:00:26.892Z,16.23
2018-08-01T01:02:55.674Z,20.00
2018-08-01T01:05:24.537Z,17.37
2018-08-01T01:07:53.509Z,17.17
2018-08-01T01:10:22.313Z,17.37
2018-08-01T01:12:51.140Z,18.63
2018-08-01T01:15:20.043Z,17.47
2018-08-01T01:17:48.944Z,18.17
2018-08-01T01:20:17.765Z,18.50
2018-08-01T01:22:46.541Z,19.63
2018-08-01T01:25:15.344Z,19.23
2018-08-01T01:27:44.141Z,18.67
2018-08-01T01:30:12.909Z,20.70
2018-08-01T01:32:41.753Z,20.23
2018-08-01T01:35:10.549Z,23.43
2018-08-01T01:37:39.766Z,20.17
2018-08-01T01:40:08.529Z,22.57
2018-08-01T01:42:37.318Z,21.40
2018-08-01T01:45:06.364Z,23.30
2018-08-01T01:47:35.168Z,20.80
2018-08-01T01:50:04.172Z,19.70
2018-08-01T01:52:45.478Z,20.07
2018-08-01T01:55:14.580Z,18.47
2018-08-01T01:57:43.387Z,18.50
2018-08-01T02:00:12.062Z,21.53
2018-08-01T02:02:41.708Z,22.73
2018-08-01T02:05:10.617Z,22.30
2018-08-01T02:07:39.921Z,23.23
2018-08-01T02:10:14.921Z,21.93
2018-08-01T02:12:44.439Z,20.07
2018-08-01T02:15:13.684Z,20.37
2018-08-01T02:17:42.703Z,20.10
2018-08-01T02:20:11.609Z,19.87
2018-08-01T02:22:40.713Z,20.80
2018-08-01T02:25:16.260Z,20.10
2018-08-01T02:27:45.085Z,20.27
2018-08-01T02:30:13.841Z,28.23
2018-08-01T02:32:42.678Z,20.93
2018-08-01T02:35:11.583Z,23.33
2018-08-01T02:37:40.746Z,24.60
2018-08-01T02:40:10.009Z,20.97
2018-08-01T02:42:38.902Z,20.40
2018-08-01T02:45:08.118Z,19.40
2018-08-01T02:47:37.324Z,28.20
2018-08-01T02:50:06.997Z,23.87
2018-08-01T02:52:35.766Z,29.70
2018-08-01T02:55:05.061Z,24.90
2018-08-01T02:57:34.070Z,26.30
2018-08-01T03:00:03.480Z,23.30
2018-08-01T03:02:32.287Z,24.23
2018-08-01T03:05:01.116Z,24.33
2018-08-01T03:07:29.892Z,21.90
2018-08-01T03:09:58.742Z,22.10
2018-08-01T03:12:27.647Z,21.97
2018-08-01T03:14:56.550Z,20.87
2018-08-01T03:17:25.350Z,36.30
2018-08-01T03:19:54.152Z,22.00
2018-08-01T03:22:22.934Z,20.63
2018-08-01T03:24:51.734Z,20.13
2018-08-01T03:27:20.498Z,21.87
2018-08-01T03:29:49.303Z,22.67
2018-08-01T03:32:18.108Z,21.00
2018-08-01T03:34:46.895Z,26.57
2018-08-01T03:37:15.701Z,20.80
2018-08-01T03:39:44.509Z,22.40
2018-08-01T03:42:13.301Z,22.27
2018-08-01T03:44:42.172Z,22.23
2018-08-01T03:47:11.137Z,21.03
2018-08-01T03:49:39.935Z,24.03
2018-08-01T03:52:08.819Z,21.10
2018-08-01T03:54:37.596Z,23.67
2018-08-01T03:57:06.621Z,23.90
2018-08-01T03:59:35.733Z,21.50
2018-08-01T04:02:04.736Z,22.67
2018-08-01T04:04:33.632Z,20.90
2018-08-01T04:07:02.645Z,18.37
2018-08-01T04:09:31.544Z,18.67
2018-08-01T04:12:00.352Z,18.67
2018-08-01T04:14:29.113Z,19.00
2018-08-01T04:16:57.951Z,20.23
2018-08-01T04:19:26.756Z,21.67
2018-08-01T04:21:55.529Z,20.00
2018-08-01T04:24:24.690Z,20.73
2018-08-01T04:26:53.525Z,20.00
2018-08-01T04:29:22.370Z,19.30
2018-08-01T04:31:51.178Z,18.67
2018-08-01T04:34:20.018Z,19.57
2018-08-01T04:36:48.796Z,16.93
2018-08-01T04:39:17.672Z,16.17
2018-08-01T04:41:46.572Z,17.07
2018-08-01T04:44:15.378Z,20.47
2018-08-01T04:46:44.176Z,20.17
2018-08-01T04:49:13.284Z,18.53
2018-08-01T04:51:42.060Z,19.27
2018-08-01T04:54:10.896Z,21.87
2018-08-01T04:56:39.697Z,23.43
2018-08-01T04:59:08.491Z,18.70
2018-08-01T05:01:37.365Z,18.30
2018-08-01T05:04:06.256Z,19.00
2018-08-01T05:06:35.100Z,21.50
2018-08-01T05:09:06.707Z,21.33
2018-08-01T05:11:35.568Z,20.87
2018-08-01T05:14:04.468Z,23.13
2018-08-01T05:16:33.273Z,22.83
2018-08-01T05:19:02.060Z,24.67
2018-08-01T05:21:30.865Z,25.10
2018-08-01T05:23:59.685Z,21.20
2018-08-01T05:26:28.594Z,21.90
2018-08-01T05:28:57.385Z,28.10
2018-08-01T05:31:26.584Z,24.83
2018-08-01T05:33:55.451Z,22.53
2018-08-01T05:36:24.300Z,23.63
2018-08-01T05:38:53.316Z,23.23
2018-08-01T05:41:22.112Z,26.27
2018-08-01T05:43:51.004Z,23.93
2018-08-01T05:46:20.099Z,27.63
2018-08-01T05:48:48.916Z,21.47
2018-08-01T05:51:17.676Z,23.37
2018-08-01T05:53:46.711Z,22.43
2018-08-01T05:56:15.468Z,21.80
2018-08-01T05:58:44.260Z,22.47
2018-08-01T06:01:13.149Z,28.60
2018-08-01T06:03:42.234Z,24.63
2018-08-01T06:06:11.296Z,24.77
2018-08-01T06:08:40.132Z,23.20
2018-08-01T06:11:08.944Z,23.23
2018-08-01T06:13:37.738Z,21.80
2018-08-01T06:16:06.544Z,20.77
2018-08-01T06:18:35.307Z,22.20
2018-08-01T06:21:04.158Z,20.70
2018-08-01T06:23:32.920Z,20.67
2018-08-01T06:26:01.762Z,18.03
2018-08-01T06:28:30.527Z,19.70
2018-08-01T06:30:59.471Z,20.90
2018-08-01T06:33:28.244Z,20.70
2018-08-01T06:35:57.056Z,18.90
2018-08-01T06:38:26.007Z,23.07
2018-08-01T06:40:54.725Z,15.70
2018-08-01T06:43:23.564Z,20.13
2018-08-01T06:45:52.560Z,17.57
2018-08-01T06:48:21.346Z,17.33
2018-08-01T06:50:50.164Z,15.63
2018-08-01T06:53:19.078Z,17.20
2018-08-01T06:55:47.844Z,16.30
2018-08-01T06:58:16.618Z,16.10
2018-08-01T07:00:45.478Z,15.33
2018-08-01T07:03:14.483Z,19.63
2018-08-01T07:05:43.845Z,17.57
2018-08-01T07:08:13.880Z,13.90
2018-08-01T07:10:42.648Z,16.60
2018-08-01T07:13:11.528Z,18.13
2018-08-01T07:15:40.332Z,15.83
2018-08-01T07:18:09.086Z,17.30
2018-08-01T07:20:37.850Z,14.97
2018-08-01T07:23:06.835Z,14.90
2018-08-01T07:25:35.547Z,15.03
2018-08-01T07:28:04.209Z,17.50
2018-08-01T07:30:33.349Z,15.20
2018-08-01T07:33:02.141Z,16.30
2018-08-01T07:35:30.900Z,12.63
2018-08-01T07:37:59.737Z,15.13
2018-08-01T07:40:28.761Z,13.23
2018-08-01T07:42:57.614Z,14.03
2018-08-01T07:45:26.461Z,13.30
2018-08-01T07:47:55.220Z,16.47
2018-08-01T07:50:24.000Z,14.30
2018-08-01T07:52:53.061Z,15.40
2018-08-01T07:55:21.875Z,16.07
2018-08-01T07:57:50.633Z,16.60
2018-08-01T08:00:19.479Z,17.30
2018-08-01T08:02:48.121Z,16.07
2018-08-01T08:05:16.876Z,17.50
2018-08-01T08:07:45.972Z,15.90
2018-08-01T08:10:15.801Z,18.20
2018-08-01T08:12:45.316Z,17.47
2018-08-01T08:15:14.231Z,15.97
2018-08-01T08:17:43.020Z,16.03
2018-08-01T08:20:11.924Z,14.73
2018-08-01T08:22:40.829Z,14.20
2018-08-01T08:25:09.634Z,14.60
2018-08-01T08:27:38.755Z,15.67
2018-08-01T08:30:07.596Z,14.10
2018-08-01T08:32:36.338Z,15.00
2018-08-01T08:35:05.140Z,14.53
2018-08-01T08:37:33.997Z,13.80
2018-08-01T08:40:02.901Z,16.13
2018-08-01T08:42:31.744Z,14.63
2018-08-01T08:45:00.585Z,14.07
2018-08-01T08:47:29.662Z,14.80
2018-08-01T08:49:58.566Z,14.00
2018-08-01T08:52:27.357Z,12.70
2018-08-01T08:54:56.049Z,13.07
2018-08-01T08:57:24.756Z,13.23
2018-08-01T08:59:53.557Z,13.13
2018-08-01T09:02:22.341Z,13.33
2018-08-01T09:04:51.166Z,17.43
2018-08-01T09:07:19.937Z,10.10
2018-08-01T09:09:48.699Z,13.07
2018-08-01T09:12:17.500Z,13.73
2018-08-01T09:14:46.349Z,11.33
2018-08-01T09:17:15.417Z,16.10
2018-08-01T09:19:44.235Z,12.20
2018-08-01T09:22:13.261Z,13.23
2018-08-01T09:24:42.051Z,20.27
2018-08-01T09:27:10.980Z,13.47
2018-08-01T09:29:39.893Z,17.03
2018-08-01T09:32:08.792Z,13.30
2018-08-01T09:34:37.605Z,12.33
2018-08-01T09:37:06.393Z,18.33
2018-08-01T09:39:35.175Z,15.70
2018-08-01T09:42:03.809Z,13.27
2018-08-01T09:44:32.592Z,12.13
2018-08-01T09:47:01.429Z,11.80
2018-08-01T09:49:30.230Z,13.13
2018-08-01T09:51:58.989Z,12.77
2018-08-01T09:54:28.274Z,13.60
2018-08-01T09:56:56.639Z,14.40
2018-08-01T09:59:25.400Z,15.67
2018-08-01T10:02:09.938Z,15.40
2018-08-01T10:04:38.780Z,12.67
2018-08-01T10:07:07.672Z,12.90
2018-08-01T10:09:36.480Z,11.80
2018-08-01T10:12:05.390Z,13.20
2018-08-01T10:14:34.396Z,12.80
2018-08-01T10:17:03.297Z,12.40
2018-08-01T10:19:32.195Z,14.80
2018-08-01T10:22:10.303Z,12.23
2018-08-01T10:24:40.363Z,12.00
2018-08-01T10:27:09.064Z,13.67
2018-08-01T10:29:37.902Z,20.20
2018-08-01T10:32:08.108Z,12.10
2018-08-01T10:34:37.593Z,11.97
2018-08-01T10:37:06.382Z,12.60
2018-08-01T10:39:35.178Z,11.27
2018-08-01T10:42:04.300Z,28.80
2018-08-01T10:44:34.132Z,11.47
2018-08-01T10:47:03.749Z,12.03
2018-08-01T10:49:33.072Z,13.13
2018-08-01T10:52:01.864Z,14.63
2018-08-01T10:54:31.076Z,10.97
2018-08-01T10:57:00.385Z,11.17
2018-08-01T10:59:29.733Z,11.30
2018-08-01T11:01:58.706Z,11.20
2018-08-01T11:04:27.816Z,10.10
2018-08-01T11:06:56.620Z,11.87
2018-08-01T11:09:25.553Z,12.20
2018-08-01T11:11:54.430Z,12.73
2018-08-01T11:14:23.237Z,11.20
2018-08-01T11:16:52.601Z,14.70
2018-08-01T11:19:21.369Z,11.10
2018-08-01T11:21:50.201Z,11.30
2018-08-01T11:24:18.962Z,10.13
2018-08-01T11:26:47.773Z,10.23
2018-08-01T11:29:16.703Z,11.07
2018-08-01T11:31:45.548Z,11.97
2018-08-01T11:34:14.451Z,14.73
2018-08-01T11:36:43.264Z,11.17
2018-08-01T11:39:13.035Z,11.53
2018-08-01T11:41:41.803Z,11.90
2018-08-01T11:44:11.049Z,11.23
2018-08-01T11:46:39.892Z,17.97
2018-08-01T11:49:08.948Z,11.83
2018-08-01T11:51:37.708Z,13.03
2018-08-01T11:54:07.040Z,14.20
2018-08-01T11:56:35.853Z,12.93
2018-08-01T11:59:04.636Z,14.20
2018-08-01T12:01:33.516Z,11.90
2018-08-01T12:04:02.292Z,12.97
2018-08-01T12:06:31.432Z,12.40
2018-08-01T12:09:00.233Z,13.80
2018-08-01T12:11:29.040Z,13.90
2018-08-01T12:13:57.864Z,11.60
2018-08-01T12:16:26.728Z,12.43
2018-08-01T12:18:55.536Z,12.73
2018-08-01T12:21:24.336Z,11.90
2018-08-01T12:23:53.240Z,13.30
2018-08-01T12:26:22.050Z,12.50
2018-08-01T12:28:50.905Z,13.67
2018-08-01T12:31:20.668Z,12.30
2018-08-01T12:33:49.472Z,12.13
2018-08-01T12:36:18.276Z,11.50
2018-08-01T12:38:47.069Z,12.17
2018-08-01T12:41:16.171Z,12.20
2018-08-01T12:43:45.076Z,12.37
2018-08-01T12:46:13.885Z,12.13
2018-08-01T12:48:42.677Z,13.47
2018-08-01T12:51:11.488Z,13.63
2018-08-01T12:53:40.284Z,13.70
2018-08-01T12:56:09.066Z,13.47
2018-08-01T12:58:37.997Z,12.70
2018-08-01T13:01:07.708Z,12.57
2018-08-01T13:03:36.512Z,11.40
2018-08-01T13:06:05.475Z,12.53
2018-08-01T13:08:34.628Z,11.03
2018-08-01T13:11:03.400Z,14.83
2018-08-01T13:13:32.164Z,12.27
2018-08-01T13:16:01.049Z,12.83
2018-08-01T13:18:29.832Z,11.93
2018-08-01T13:20:58.744Z,12.00
2018-08-01T13:23:27.612Z,13.53
2018-08-01T13:25:56.444Z,13.73
2018-08-01T13:28:25.248Z,11.23
2018-08-01T13:30:54.019Z,12.63
2018-08-01T13:33:22.847Z,12.40
2018-08-01T13:35:51.652Z,11.10
2018-08-01T13:38:20.451Z,14.07
2018-08-01T13:40:49.268Z,11.20
2018-08-01T13:43:18.033Z,12.57
2018-08-01T13:45:47.265Z,12.70
2018-08-01T13:48:16.158Z,12.23
2018-08-01T13:50:44.925Z,12.87
2018-08-01T13:53:13.823Z,12.50
2018-08-01T13:55:42.668Z,12.63
2018-08-01T13:58:11.579Z,12.27
2018-08-01T14:00:40.421Z,12.00
2018-08-01T14:03:09.280Z,13.27
2018-08-01T14:05:38.128Z,13.60
2018-08-01T14:08:06.981Z,12.70
2018-08-01T14:10:35.748Z,12.07
2018-08-01T14:13:04.584Z,11.37
2018-08-01T14:15:33.353Z,11.50
2018-08-01T14:18:02.392Z,12.40
2018-08-01T14:20:31.206Z,12.53
2018-08-01T14:22:59.992Z,12.07
2018-08-01T14:25:29.003Z,12.50
2018-08-01T14:27:57.800Z,14.70
2018-08-01T14:30:26.571Z,12.30
2018-08-01T14:32:55.369Z,11.90
2018-08-01T14:35:24.948Z,10.97
2018-08-01T14:37:53.702Z,16.20
2018-08-01T14:40:22.472Z,11.33
2018-08-01T14:42:51.283Z,13.70
2018-08-01T14:45:20.124Z,13.40
2018-08-01T14:47:48.919Z,11.23
2018-08-01T14:50:17.838Z,11.07
2018-08-01T14:52:46.633Z,11.53
2018-08-01T14:55:15.489Z,11.00
2018-08-01T14:57:44.317Z,10.67
2018-08-01T15:00:13.090Z,12.70
2018-08-01T15:02:41.941Z,10.53
2018-08-01T15:05:11.973Z,13.20
2018-08-01T15:07:40.877Z,12.37
2018-08-01T15:10:09.639Z,11.47
2018-08-01T15:12:38.685Z,10.20
2018-08-01T15:15:08.444Z,11.17
2018-08-01T15:17:37.362Z,10.73
2018-08-01T15:20:06.133Z,11.20
2018-08-01T15:22:34.926Z,11.00
2018-08-01T15:25:04.189Z,11.07
2018-08-01T15:27:33.020Z,10.90
2018-08-01T15:30:02.027Z,11.17
2018-08-01T15:32:30.873Z,10.70
2018-08-01T15:34:59.837Z,11.90
2018-08-01T15:37:28.636Z,15.47
2018-08-01T15:39:57.641Z,12.53
2018-08-01T15:42:26.506Z,12.90
2018-08-01T15:44:55.344Z,12.57
2018-08-01T15:47:24.145Z,14.60
2018-08-01T15:49:52.946Z,8.90
2018-08-01T15:52:22.058Z,7.03
2018-08-01T15:54:50.956Z,8.60
2018-08-01T15:57:19.705Z,8.73
2018-08-01T15:59:48.559Z,9.53
2018-08-01T16:02:17.355Z,8.57
2018-08-01T16:04:46.071Z,7.50
2018-08-01T16:07:14.704Z,6.63
2018-08-01T16:09:43.552Z,5.97
2018-08-01T16:12:12.362Z,5.93
2018-08-01T16:14:41.467Z,7.10
2018-08-01T16:17:10.237Z,5.20
2018-08-01T16:19:39.068Z,9.00
2018-08-01T16:22:08.821Z,7.77
2018-08-01T16:24:37.593Z,6.70
2018-08-01T16:27:06.388Z,5.90
2018-08-01T16:29:35.302Z,7.40
2018-08-01T16:32:04.158Z,6.00
2018-08-01T16:34:32.872Z,5.87
2018-08-01T16:37:01.873Z,4.80
2018-08-01T16:39:30.889Z,8.03
2018-08-01T16:41:59.708Z,5.43
2018-08-01T16:44:28.468Z,6.73
2018-08-01T16:46:57.312Z,4.87
2018-08-01T16:49:26.031Z,4.67
2018-08-01T16:51:54.741Z,6.30
2018-08-01T16:54:23.618Z,4.70
2018-08-01T16:56:52.422Z,5.37
2018-08-01T16:59:21.627Z,7.33
2018-08-01T17:01:50.386Z,7.00
2018-08-01T17:04:19.228Z,8.13
2018-08-01T17:06:48.016Z,5.17
2018-08-01T17:09:16.825Z,4.90
2018-08-01T17:11:45.634Z,5.87
2018-08-01T17:14:14.528Z,5.13
2018-08-01T17:16:43.127Z,4.87
2018-08-01T17:19:11.834Z,4.73
2018-08-01T17:21:40.600Z,8.93
2018-08-01T17:24:09.405Z,7.50
2018-08-01T17:26:38.147Z,5.30
2018-08-01T17:29:06.998Z,6.03
2018-08-01T17:31:35.832Z,6.10
2018-08-01T17:34:04.604Z,5.33
2018-08-01T17:36:33.420Z,4.43
2018-08-01T17:39:02.213Z,12.67
2018-08-01T17:41:31.109Z,8.57
2018-08-01T17:43:59.958Z,5.60
2018-08-01T17:46:28.726Z,5.37
2018-08-01T17:48:57.480Z,3.93
2018-08-01T17:51:26.585Z,5.03
2018-08-01T17:53:55.346Z,5.63
2018-08-01T17:56:24.104Z,10.00
2018-08-01T17:58:53.335Z,8.00
2018-08-01T18:01:22.040Z,6.10
2018-08-01T18:03:51.339Z,8.10
2018-08-01T18:06:20.389Z,6.30
2018-08-01T18:08:49.168Z,4.77
2018-08-01T18:11:17.993Z,6.50
2018-08-01T18:13:46.816Z,4.10
2018-08-01T18:16:15.568Z,5.37
2018-08-01T18:18:44.388Z,4.30
2018-08-01T18:21:13.498Z,11.47
2018-08-01T18:23:42.296Z,5.57
2018-08-01T18:26:11.064Z,8.73
2018-08-01T18:28:39.853Z,4.80
2018-08-01T18:31:08.649Z,4.20
2018-08-01T18:33:37.710Z,10.30
2018-08-01T18:36:07.013Z,6.50
2018-08-01T18:38:36.129Z,4.00
2018-08-01T18:41:05.499Z,6.57
2018-08-01T18:43:34.345Z,7.20
2018-08-01T18:46:03.140Z,6.77
2018-08-01T18:48:31.953Z,4.50
2018-08-01T18:51:00.750Z,4.93
2018-08-01T18:53:29.660Z,3.20
2018-08-01T18:55:58.424Z,3.77
2018-08-01T18:58:27.200Z,9.03
2018-08-01T19:00:56.156Z,6.00
2018-08-01T19:03:25.376Z,4.63
2018-08-01T19:05:54.010Z,8.73
2018-08-01T19:08:23.286Z,10.33
2018-08-01T19:10:52.093Z,5.70
2018-08-01T19:13:20.956Z,6.27
2018-08-01T19:15:49.987Z,4.07
2018-08-01T19:18:18.732Z,6.17
2018-08-01T19:20:47.505Z,4.53
2018-08-01T19:23:16.270Z,9.70
2018-08-01T19:25:45.098Z,8.80
2018-08-01T19:28:14.201Z,7.10
2018-08-01T19:30:43.000Z,7.27
2018-08-01T19:33:11.764Z,5.27
2018-08-01T19:35:40.814Z,6.10
2018-08-01T19:38:09.822Z,7.13
2018-08-01T19:40:38.613Z,6.30
2018-08-01T19:43:07.729Z,3.23
2018-08-01T19:45:36.824Z,6.73
2018-08-01T19:48:06.039Z,6.07
2018-08-01T19:50:35.007Z,6.37
2018-08-01T19:53:04.091Z,7.43
2018-08-01T19:55:32.832Z,6.23
2018-08-01T19:58:00.872Z,7.03
2018-08-01T20:00:29.809Z,14.43
2018-08-01T20:02:58.436Z,7.27
2018-08-01T20:05:27.366Z,5.87
2018-08-01T20:07:56.244Z,6.27
2018-08-01T20:10:25.105Z,5.93
2018-08-01T20:12:53.856Z,7.30
2018-08-01T20:15:23.065Z,8.67
2018-08-01T20:17:51.812Z,6.80
2018-08-01T20:20:20.572Z,10.07
2018-08-01T20:22:49.460Z,7.50
2018-08-01T20:25:18.249Z,7.33
2018-08-01T20:27:47.044Z,8.03
2018-08-01T20:30:15.830Z,6.40
2018-08-01T20:32:44.708Z,8.20
2018-08-01T20:35:13.568Z,7.97
2018-08-01T20:37:42.636Z,8.33
2018-08-01T20:40:11.385Z,8.90
2018-08-01T20:42:40.477Z,8.27
2018-08-01T20:45:09.295Z,10.97
2018-08-01T20:47:38.121Z,7.73
2018-08-01T20:50:06.889Z,7.90
2018-08-01T20:52:35.699Z,10.50
2018-08-01T20:55:04.593Z,9.33
2018-08-01T20:57:33.454Z,10.63
2018-08-01T21:00:02.504Z,8.40
2018-08-01T21:02:31.309Z,7.63
2018-08-01T21:05:00.072Z,9.27
2018-08-01T21:07:28.910Z,12.03
2018-08-01T21:09:58.026Z,13.27
2018-08-01T21:12:26.824Z,9.63
2018-08-01T21:14:55.622Z,9.90
2018-08-01T21:17:24.483Z,11.90
2018-08-01T21:19:53.234Z,14.30
2018-08-01T21:22:22.012Z,11.43
2018-08-01T21:24:50.651Z,13.17
2018-08-01T21:27:19.301Z,12.53
2018-08-01T21:29:48.118Z,17.27
2018-08-01T21:32:16.884Z,13.43
2018-08-01T21:34:45.737Z,12.27
2018-08-01T21:37:14.532Z,14.43
2018-08-01T21:39:43.436Z,14.07
2018-08-01T21:42:12.234Z,19.60
2018-08-01T21:44:41.399Z,13.77
2018-08-01T21:47:10.137Z,17.30
2018-08-01T21:49:38.925Z,13.67
2018-08-01T21:52:07.744Z,12.30
2018-08-01T21:54:36.419Z,12.20
2018-08-01T21:57:05.100Z,13.57
2018-08-01T21:59:33.896Z,12.77
2018-08-01T22:02:02.696Z,15.60
2018-08-01T22:04:31.529Z,13.33
2018-08-01T22:07:00.332Z,13.80
2018-08-01T22:09:29.353Z,15.00
2018-08-01T22:12:02.397Z,14.17
2018-08-01T22:14:31.366Z,18.13
2018-08-01T22:17:00.271Z,14.97
2018-08-01T22:19:29.274Z,14.27
2018-08-01T22:21:59.157Z,13.53
2018-08-01T22:24:28.096Z,15.80
2018-08-01T22:26:56.860Z,15.60
2018-08-01T22:29:25.718Z,13.67
2018-08-01T22:31:54.713Z,15.17
2018-08-01T22:34:23.570Z,15.40
2018-08-01T22:36:52.730Z,14.77
2018-08-01T22:39:22.145Z,15.77
2018-08-01T22:41:50.941Z,20.90
2018-08-01T22:44:19.944Z,16.80
2018-08-01T22:46:48.754Z,15.30
2018-08-01T22:49:17.561Z,16.30
2018-08-01T22:51:46.357Z,18.07
2018-08-01T22:54:15.165Z,17.37
2018-08-01T22:56:43.948Z,22.63
2018-08-01T22:59:12.848Z,18.97
2018-08-01T23:01:41.767Z,18.87
2018-08-01T23:04:10.657Z,20.23
2018-08-01T23:06:39.570Z,21.77
2018-08-01T23:09:09.808Z,20.23
2018-08-01T23:11:38.909Z,22.70
2018-08-01T23:14:07.949Z,28.90
2018-08-01T23:16:36.724Z,20.37
2018-08-01T23:19:05.512Z,25.70
2018-08-01T23:21:34.416Z,24.93
2018-08-01T23:24:03.216Z,19.03
2018-08-01T23:26:32.121Z,21.20
2018-08-01T23:29:01.001Z,22.33
2018-08-01T23:31:29.809Z,19.00
2018-08-01T23:33:58.608Z,20.23
2018-08-01T23:36:27.428Z,23.97
2018-08-01T23:38:56.256Z,23.27
2018-08-01T23:41:25.022Z,19.50
2018-08-01T23:43:53.924Z,20.80
2018-08-01T23:46:22.976Z,15.67
2018-08-01T23:48:51.845Z,24.50
2018-08-01T23:51:20.645Z,21.10
2018-08-01T23:53:49.458Z,22.43
2018-08-01T23:56:18.432Z,18.47
2018-08-01T23:58:47.249Z,17.07
